Private Wetterstation Wechselburg
Wetterdaten: Woche 17.07.23 - 23.07.23 (KW29)
Datum Zeit Temp. +2m Bodentemp. Temp.+5cm Temp. Wind Windchill X Diff Temp. Feuchte +2m Feuchte +5cm Luftdruck Regen Wind Richtung Sonnenschein Taupunkt Windchill Windben
17.07.2023 00:00 16,0 C 21,1 C 15,5 C 15,5 C 14,5 C 0,0 C 76 % 70 % 1019,1 hPa 0,0 l/m 0,0 km/h (0 Bft) N 0,00 h 11,9 C 14,5 C 0,0 km/h (0 Bft)
17.07.2023 01:00 15,6 C 20,9 C 15,7 C 15,5 C 15,1 C 0,0 C 80 % 72 % 1019,3 hPa 0,0 l/m 0,0 km/h (0 Bft) N 0,00 h 12,2 C 15,1 C 0,0 km/h (0 Bft)
17.07.2023 02:00 15,7 C 20,8 C 15,7 C 15,6 C 15,3 C 0,0 C 81 % 72 % 1019,4 hPa 0,0 l/m 0,0 km/h (0 Bft) N 0,00 h 12,4 C 15,3 C 0,0 km/h (0 Bft)
17.07.2023 03:00 15,7 C 20,8 C 15,7 C 15,5 C 15,2 C 0,0 C 82 % 74 % 1019,2 hPa 0,0 l/m 0,0 km/h (0 Bft) N 0,00 h 12,6 C 15,2 C 0,0 km/h (0 Bft)
17.07.2023 04:00 15,6 C 20,6 C 15,8 C 15,6 C 15,4 C 0,0 C 83 % 74 % 1019,7 hPa 0,0 l/m 0,0 km/h (0 Bft) N 0,00 h 12,7 C 15,4 C 0,0 km/h (0 Bft)
17.07.2023 05:00 15,9 C 20,5 C 16,0 C 15,8 C 15,7 C 0,0 C 83 % 73 % 1019,6 hPa 0,0 l/m 0,0 km/h (0 Bft) N 0,00 h 13,0 C 15,7 C 0,0 km/h (0 Bft)
17.07.2023 06:00 16,3 C 20,4 C 16,7 C 16,7 C 16,7 C 0,4 C 83 % 73 % 1019,7 hPa 0,0 l/m 0,0 km/h (0 Bft) N 0,00 h 13,4 C 16,7 C 0,0 km/h (0 Bft)
17.07.2023 07:00 17,8 C 20,2 C 18,2 C 19,5 C 19,5 C 1,7 C 81 % 70 % 1019,9 hPa 0,0 l/m 0,0 km/h (0 Bft) N 0,00 h 14,5 C 19,5 C 0,0 km/h (0 Bft)
17.07.2023 08:00 21,0 C 20,1 C 19,8 C 27,5 C 27,5 C 6,6 C 70 % 64 % 1020,2 hPa 0,0 l/m 0,0 km/h (0 Bft) N 0,73 h 15,1 C 27,5 C 0,0 km/h (0 Bft)
17.07.2023 09:00 24,1 C 20,1 C 21,6 C 31,1 C 31,1 C 7,0 C 51 % 52 % 1020,5 hPa 0,0 l/m 0,4 km/h (0 Bft) S-SO 0,83 h 13,3 C 31,1 C 2,2 km/h (1 Bft)
17.07.2023 10:00 24,6 C 20,1 C 23,4 C 27,0 C 27,0 C 2,5 C 48 % 47 % 1020,8 hPa 0,0 l/m 0,1 km/h (0 Bft) N 0,00 h 12,7 C 27,0 C 1,0 km/h (0 Bft)
17.07.2023 11:00 25,0 C 20,1 C 24,1 C 27,0 C 27,0 C 2,0 C 45 % 44 % 1020,8 hPa 0,0 l/m 0,0 km/h (0 Bft) N 0,00 h 12,4 C 27,0 C 0,0 km/h (0 Bft)
17.07.2023 12:00 26,4 C 20,1 C 25,3 C 27,1 C 27,0 C 0,7 C 42 % 41 % 1020,4 hPa 0,0 l/m 0,0 km/h (0 Bft) N 0,00 h 12,5 C 27,0 C 0,0 km/h (0 Bft)
17.07.2023 13:00 27,1 C 20,2 C 25,8 C 27,2 C 27,0 C 0,2 C 39 % 39 % 1020,1 hPa 0,0 l/m 0,0 km/h (0 Bft) N 0,00 h 12,0 C 27,0 C 0,0 km/h (0 Bft)
17.07.2023 14:00 28,2 C 20,3 C 27,9 C 29,2 C 28,6 C 1,3 C 33 % 34 % 1019,5 hPa 0,0 l/m 0,3 km/h (0 Bft) S-SW 0,33 h 10,3 C 28,6 C 0,5 km/h (0 Bft)
17.07.2023 15:00 27,6 C 20,4 C 28,3 C 32,3 C 32,3 C 4,7 C 33 % 32 % 1019,0 hPa 0,0 l/m 0,9 km/h (0 Bft) SO 0,67 h 10,0 C 32,3 C 1,6 km/h (1 Bft)
17.07.2023 16:00 27,6 C 20,5 C 27,6 C 34,4 C 34,4 C 6,8 C 35 % 33 % 1018,9 hPa 0,0 l/m 0,1 km/h (0 Bft) N 1,00 h 10,6 C 34,4 C 0,0 km/h (0 Bft)
17.07.2023 17:00 27,7 C 20,6 C 27,2 C 34,4 C 34,4 C 6,7 C 36 % 34 % 1018,3 hPa 0,0 l/m 0,0 km/h (0 Bft) N 1,00 h 11,0 C 34,4 C 0,0 km/h (0 Bft)
17.07.2023 18:00 26,8 C 20,7 C 26,0 C 34,4 C 34,4 C 7,6 C 37 % 35 % 1018,2 hPa 0,0 l/m 0,0 km/h (0 Bft) N 1,00 h 11,0 C 34,4 C 0,0 km/h (0 Bft)
17.07.2023 19:00 25,7 C 20,8 C 24,8 C 29,1 C 29,1 C 3,5 C 39 % 35 % 1018,4 hPa 0,0 l/m 0,1 km/h (0 Bft) N 0,42 h 10,7 C 29,1 C 0,9 km/h (0 Bft)
17.07.2023 20:00 24,4 C 20,8 C 23,6 C 24,3 C 24,0 C 0,0 C 41 % 35 % 1019,2 hPa 0,0 l/m 0,1 km/h (0 Bft) N 0,00 h 10,2 C 24,0 C 0,0 km/h (0 Bft)
17.07.2023 21:00 23,1 C 20,8 C 22,3 C 22,8 C 22,1 C 0,0 C 43 % 37 % 1020,0 hPa 0,0 l/m 0,0 km/h (0 Bft) N 0,00 h 9,9 C 22,1 C 0,0 km/h (0 Bft)
17.07.2023 22:00 22,0 C 20,9 C 21,5 C 21,7 C 21,1 C 0,0 C 47 % 39 % 1021,1 hPa 0,0 l/m 0,0 km/h (0 Bft) N 0,00 h 10,0 C 21,1 C 0,0 km/h (0 Bft)
17.07.2023 23:00 20,0 C 20,9 C 19,2 C 19,7 C 19,1 C 0,0 C 52 % 44 % 1022,3 hPa 0,0 l/m 2,5 km/h (1 Bft) SO 0,00 h 9,9 C 19,1 C 6,8 km/h (2 Bft)
18.07.2023 00:00 16,4 C 20,8 C 16,1 C 16,1 C 15,3 C 0,0 C 64 % 52 % 1023,8 hPa 0,0 l/m 0,6 km/h (0 Bft) W-SW 0,00 h 9,5 C 15,3 C 1,7 km/h (1 Bft)
18.07.2023 01:00 15,3 C 20,6 C 14,8 C 14,9 C 14,0 C 0,0 C 69 % 57 % 1024,4 hPa 0,0 l/m 0,0 km/h (0 Bft) N 0,00 h 9,5 C 14,0 C 0,0 km/h (0 Bft)
18.07.2023 02:00 14,1 C 20,4 C 13,3 C 13,5 C 12,3 C 0,0 C 72 % 62 % 1024,2 hPa 0,0 l/m 0,0 km/h (0 Bft) N 0,00 h 9,2 C 12,3 C 0,0 km/h (0 Bft)
18.07.2023 03:00 12,8 C 20,4 C 12,1 C 12,2 C 10,9 C 0,0 C 76 % 67 % 1024,3 hPa 0,0 l/m 0,0 km/h (0 Bft) N 0,00 h 8,7 C 10,9 C 0,0 km/h (0 Bft)
18.07.2023 04:00 11,8 C 20,2 C 11,3 C 11,3 C 10,3 C 0,0 C 80 % 69 % 1024,2 hPa 0,0 l/m 0,0 km/h (0 Bft) N 0,00 h 8,4 C 10,3 C 0,0 km/h (0 Bft)
18.07.2023 05:00 11,1 C 20,1 C 10,6 C 10,6 C 9,5 C 0,0 C 82 % 71 % 1024,4 hPa 0,0 l/m 0,0 km/h (0 Bft) N 0,00 h 8,1 C 9,5 C 0,0 km/h (0 Bft)
18.07.2023 06:00 11,1 C 19,8 C 11,1 C 10,9 C 10,4 C 0,0 C 84 % 72 % 1024,4 hPa 0,0 l/m 0,0 km/h (0 Bft) N 0,00 h 8,4 C 10,4 C 0,0 km/h (0 Bft)
18.07.2023 07:00 13,3 C 19,4 C 13,9 C 20,7 C 20,6 C 7,4 C 85 % 69 % 1024,4 hPa 0,0 l/m 0,0 km/h (0 Bft) N 0,67 h 10,8 C 20,6 C 0,0 km/h (0 Bft)
18.07.2023 08:00 17,9 C 19,3 C 15,9 C 30,0 C 30,0 C 12,0 C 71 % 62 % 1024,6 hPa 0,0 l/m 0,0 km/h (0 Bft) N 1,00 h 12,6 C 30,0 C 0,4 km/h (0 Bft)
18.07.2023 09:00 19,9 C 19,2 C 17,2 C 28,3 C 28,3 C 8,4 C 59 % 56 % 1024,7 hPa 0,0 l/m 0,1 km/h (0 Bft) N 0,83 h 11,7 C 28,3 C 1,1 km/h (1 Bft)
18.07.2023 10:00 20,1 C 19,2 C 18,8 C 25,4 C 25,4 C 5,3 C 57 % 52 % 1024,4 hPa 0,0 l/m 0,1 km/h (0 Bft) N 0,48 h 11,3 C 25,4 C 0,0 km/h (0 Bft)
18.07.2023 11:00 21,5 C 19,2 C 20,5 C 26,5 C 26,5 C 5,0 C 50 % 45 % 1023,9 hPa 0,0 l/m 0,4 km/h (0 Bft) N 0,67 h 10,7 C 26,5 C 1,2 km/h (1 Bft)
18.07.2023 12:00 23,9 C 19,2 C 22,3 C 30,8 C 30,8 C 6,9 C 44 % 41 % 1023,0 hPa 0,0 l/m 0,4 km/h (0 Bft) N 1,00 h 11,0 C 30,8 C 2,2 km/h (1 Bft)
18.07.2023 13:00 26,9 C 19,3 C 24,1 C 31,3 C 31,3 C 4,4 C 38 % 38 % 1022,1 hPa 0,0 l/m 0,1 km/h (0 Bft) N 1,00 h 11,3 C 31,3 C 0,4 km/h (0 Bft)
18.07.2023 14:00 27,0 C 19,5 C 25,5 C 31,3 C 31,3 C 4,3 C 36 % 36 % 1021,6 hPa 0,0 l/m 0,0 km/h (0 Bft) N 1,00 h 10,6 C 31,3 C 0,0 km/h (0 Bft)
18.07.2023 15:00 26,5 C 19,6 C 26,0 C 31,3 C 31,3 C 4,8 C 37 % 36 % 1021,0 hPa 0,0 l/m 0,0 km/h (0 Bft) N 1,00 h 10,5 C 31,3 C 0,0 km/h (0 Bft)
18.07.2023 16:00 26,7 C 19,8 C 26,6 C 31,3 C 31,3 C 4,6 C 36 % 35 % 1019,9 hPa 0,0 l/m 0,0 km/h (0 Bft) N 1,00 h 10,5 C 31,3 C 0,0 km/h (0 Bft)
18.07.2023 17:00 26,7 C 19,9 C 26,4 C 31,3 C 31,3 C 4,6 C 36 % 34 % 1019,2 hPa 0,0 l/m 0,0 km/h (0 Bft) N 1,00 h 10,4 C 31,3 C 0,0 km/h (0 Bft)
18.07.2023 18:00 26,3 C 20,0 C 25,6 C 31,3 C 31,3 C 5,0 C 36 % 33 % 1018,7 hPa 0,0 l/m 0,0 km/h (0 Bft) N 1,00 h 10,1 C 31,3 C 0,0 km/h (0 Bft)
18.07.2023 19:00 25,6 C 20,1 C 24,7 C 31,3 C 31,3 C 5,7 C 36 % 32 % 1018,4 hPa 0,0 l/m 0,0 km/h (0 Bft) N 1,00 h 9,4 C 31,3 C 0,0 km/h (0 Bft)
18.07.2023 20:00 23,8 C 20,3 C 22,2 C 31,3 C 31,3 C 7,5 C 40 % 36 % 1018,1 hPa 0,0 l/m 0,0 km/h (0 Bft) N 1,00 h 9,3 C 31,3 C 0,0 km/h (0 Bft)
18.07.2023 21:00 20,8 C 20,3 C 19,0 C 27,2 C 26,7 C 6,6 C 50 % 44 % 1018,1 hPa 0,0 l/m 0,0 km/h (0 Bft) N 0,08 h 9,8 C 26,7 C 0,0 km/h (0 Bft)
18.07.2023 22:00 18,0 C 20,2 C 16,6 C 17,3 C 15,8 C 0,0 C 59 % 52 % 1018,0 hPa 0,0 l/m 0,0 km/h (0 Bft) N 0,00 h 9,9 C 15,8 C 0,0 km/h (0 Bft)
18.07.2023 23:00 15,9 C 20,2 C 14,9 C 15,3 C 14,1 C 0,0 C 66 % 55 % 1018,0 hPa 0,0 l/m 0,0 km/h (0 Bft) N 0,00 h 9,4 C 14,1 C 0,0 km/h (0 Bft)
19.07.2023 00:00 14,3 C 20,0 C 13,4 C 13,7 C 12,4 C 0,0 C 71 % 62 % 1018,0 hPa 0,0 l/m 0,0 km/h (0 Bft) N 0,00 h 9,1 C 12,4 C 0,0 km/h (0 Bft)
19.07.2023 01:00 13,2 C 20,0 C 12,4 C 12,6 C 11,4 C 0,0 C 75 % 65 % 1017,5 hPa 0,0 l/m 0,0 km/h (0 Bft) N 0,00 h 8,9 C 11,4 C 0,0 km/h (0 Bft)
19.07.2023 02:00 12,1 C 19,8 C 11,5 C 11,5 C 10,3 C 0,0 C 77 % 67 % 1017,2 hPa 0,0 l/m 0,0 km/h (0 Bft) N 0,00 h 8,2 C 10,3 C 0,0 km/h (0 Bft)
19.07.2023 03:00 11,3 C 19,6 C 10,8 C 10,8 C 9,7 C 0,0 C 79 % 67 % 1016,8 hPa 0,0 l/m 0,0 km/h (0 Bft) N 0,00 h 7,9 C 9,7 C 0,0 km/h (0 Bft)
19.07.2023 04:00 10,7 C 19,5 C 10,2 C 10,2 C 9,1 C 0,0 C 81 % 70 % 1016,6 hPa 0,0 l/m 0,0 km/h (0 Bft) N 0,00 h 7,6 C 9,1 C 0,0 km/h (0 Bft)
19.07.2023 05:00 10,3 C 19,4 C 10,0 C 9,9 C 9,0 C 0,0 C 82 % 71 % 1016,4 hPa 0,0 l/m 0,0 km/h (0 Bft) N 0,00 h 7,4 C 9,0 C 0,0 km/h (0 Bft)
19.07.2023 06:00 10,5 C 19,1 C 10,6 C 10,4 C 10,1 C 0,0 C 84 % 71 % 1016,3 hPa 0,0 l/m 0,0 km/h (0 Bft) N 0,00 h 8,0 C 10,1 C 0,0 km/h (0 Bft)
19.07.2023 07:00 13,3 C 18,7 C 13,9 C 22,5 C 22,5 C 9,2 C 85 % 68 % 1016,3 hPa 0,0 l/m 0,0 km/h (0 Bft) N 0,80 h 10,9 C 22,5 C 0,0 km/h (0 Bft)
19.07.2023 08:00 18,6 C 18,6 C 16,2 C 31,1 C 31,1 C 12,6 C 70 % 62 % 1016,0 hPa 0,0 l/m 0,0 km/h (0 Bft) N 0,95 h 12,9 C 31,1 C 0,0 km/h (0 Bft)
19.07.2023 09:00 23,1 C 18,6 C 19,6 C 31,1 C 31,1 C 8,0 C 55 % 57 % 1015,7 hPa 0,0 l/m 0,0 km/h (0 Bft) N 1,00 h 13,5 C 31,1 C 0,0 km/h (0 Bft)
19.07.2023 10:00 25,0 C 18,7 C 22,7 C 28,5 C 28,5 C 3,5 C 47 % 49 % 1015,6 hPa 0,0 l/m 0,4 km/h (0 Bft) N 1,07 h 12,9 C 28,5 C 1,1 km/h (1 Bft)
19.07.2023 11:00 26,1 C 18,9 C 24,4 C 28,8 C 28,8 C 2,7 C 43 % 44 % 1015,3 hPa 0,0 l/m 0,0 km/h (0 Bft) N 0,00 h 12,6 C 28,8 C 0,0 km/h (0 Bft)
19.07.2023 12:00 27,6 C 19,1 C 26,0 C 28,8 C 28,8 C 1,2 C 40 % 39 % 1014,9 hPa 0,0 l/m 0,0 km/h (0 Bft) N 0,00 h 12,6 C 28,8 C 0,0 km/h (0 Bft)
19.07.2023 13:00 29,3 C 19,2 C 27,0 C 29,2 C 28,8 C 0,1 C 36 % 37 % 1014,5 hPa 0,0 l/m 0,0 km/h (0 Bft) N 0,00 h 12,7 C 28,8 C 0,0 km/h (0 Bft)
19.07.2023 14:00 28,8 C 19,5 C 28,3 C 28,8 C 28,8 C 0,1 C 35 % 34 % 1014,2 hPa 0,0 l/m 0,0 km/h (0 Bft) N 0,00 h 11,7 C 28,8 C 0,0 km/h (0 Bft)
19.07.2023 15:00 28,8 C 19,7 C 29,1 C 28,8 C 28,8 C 0,0 C 35 % 33 % 1013,8 hPa 0,0 l/m 0,0 km/h (0 Bft) N 0,00 h 11,7 C 28,8 C 0,0 km/h (0 Bft)
19.07.2023 16:00 27,6 C 19,9 C 27,1 C 28,8 C 28,8 C 1,2 C 37 % 33 % 1013,7 hPa 0,0 l/m 0,0 km/h (0 Bft) N 0,00 h 11,5 C 28,8 C 0,0 km/h (0 Bft)
19.07.2023 17:00 24,6 C 20,1 C 24,3 C 28,8 C 28,8 C 4,2 C 44 % 37 % 1014,1 hPa 0,0 l/m 0,0 km/h (0 Bft) N 0,92 h 11,6 C 28,8 C 0,0 km/h (0 Bft)
19.07.2023 18:00 22,7 C 20,1 C 22,4 C 28,8 C 28,8 C 6,1 C 50 % 42 % 1014,3 hPa 0,0 l/m 0,0 km/h (0 Bft) N 1,00 h 11,8 C 28,8 C 0,0 km/h (0 Bft)
19.07.2023 19:00 20,8 C 20,2 C 20,3 C 24,0 C 23,6 C 3,3 C 60 % 52 % 1014,2 hPa 0,0 l/m 0,0 km/h (0 Bft) N 0,60 h 12,7 C 23,6 C 0,0 km/h (0 Bft)
19.07.2023 20:00 19,1 C 20,5 C 17,6 C 18,5 C 17,2 C 0,0 C 69 % 69 % 1014,3 hPa 1,4 l/m 0,1 km/h (0 Bft) N 0,00 h 13,3 C 17,2 C 0,5 km/h (0 Bft)
19.07.2023 21:00 16,9 C 20,7 C 16,0 C 16,4 C 15,5 C 0,0 C 81 % 82 % 1015,0 hPa 0,7 l/m 0,8 km/h (0 Bft) S-SO 0,00 h 13,6 C 15,5 C 1,3 km/h (1 Bft)
19.07.2023 22:00 16,4 C 20,6 C 15,9 C 16,1 C 15,5 C 0,0 C 84 % 84 % 1014,2 hPa 0,0 l/m 0,0 km/h (0 Bft) N 0,00 h 13,8 C 15,5 C 0,0 km/h (0 Bft)
19.07.2023 23:00 16,1 C 20,5 C 15,5 C 15,8 C 15,1 C 0,0 C 85 % 84 % 1014,1 hPa 0,0 l/m 0,0 km/h (0 Bft) N 0,00 h 13,6 C 15,1 C 0,2 km/h (0 Bft)
20.07.2023 00:00 15,6 C 20,5 C 15,2 C 15,3 C 14,7 C 0,0 C 86 % 89 % 1014,3 hPa 0,7 l/m 0,0 km/h (0 Bft) N 0,00 h 13,4 C 14,7 C 0,0 km/h (0 Bft)
20.07.2023 01:00 15,5 C 20,3 C 15,3 C 15,3 C 15,0 C 0,0 C 87 % 90 % 1014,8 hPa 0,0 l/m 0,0 km/h (0 Bft) N 0,00 h 13,4 C 15,0 C 0,0 km/h (0 Bft)
20.07.2023 02:00 15,5 C 20,2 C 15,2 C 15,3 C 14,9 C 0,0 C 88 % 90 % 1014,8 hPa 0,0 l/m 0,0 km/h (0 Bft) N 0,00 h 13,5 C 14,9 C 0,0 km/h (0 Bft)
20.07.2023 03:00 15,0 C 20,1 C 14,6 C 14,7 C 14,2 C 0,0 C 87 % 90 % 1014,6 hPa 0,0 l/m 0,0 km/h (0 Bft) N 0,00 h 12,8 C 14,2 C 0,0 km/h (0 Bft)
20.07.2023 04:00 14,4 C 20,0 C 14,1 C 14,2 C 13,8 C 0,0 C 88 % 90 % 1014,6 hPa 0,0 l/m 0,0 km/h (0 Bft) N 0,00 h 12,4 C 13,8 C 0,0 km/h (0 Bft)
20.07.2023 05:00 14,2 C 19,9 C 14,0 C 14,0 C 13,8 C 0,0 C 88 % 90 % 1014,9 hPa 0,0 l/m 0,0 km/h (0 Bft) N 0,00 h 12,2 C 13,8 C 0,0 km/h (0 Bft)
20.07.2023 06:00 14,1 C 19,9 C 14,5 C 14,4 C 14,4 C 0,3 C 88 % 90 % 1015,1 hPa 0,0 l/m 0,0 km/h (0 Bft) N 0,00 h 12,2 C 14,4 C 0,0 km/h (0 Bft)
20.07.2023 07:00 14,3 C 19,7 C 14,6 C 14,6 C 14,6 C 0,3 C 88 % 90 % 1015,3 hPa 2,1 l/m 0,1 km/h (0 Bft) N 0,00 h 12,3 C 14,6 C 0,7 km/h (0 Bft)
20.07.2023 08:00 14,5 C 19,6 C 15,1 C 17,9 C 17,9 C 3,4 C 88 % 90 % 1015,4 hPa 0,0 l/m 0,0 km/h (0 Bft) N 0,48 h 12,6 C 17,9 C 0,7 km/h (0 Bft)
20.07.2023 09:00 15,4 C 19,6 C 15,8 C 19,9 C 19,9 C 4,5 C 88 % 90 % 1015,8 hPa 0,0 l/m 0,1 km/h (0 Bft) N 1,00 h 13,4 C 19,9 C 0,2 km/h (0 Bft)
20.07.2023 10:00 16,7 C 19,6 C 16,4 C 18,4 C 18,4 C 1,7 C 87 % 90 % 1015,6 hPa 0,0 l/m 0,0 km/h (0 Bft) N 0,27 h 14,6 C 18,4 C 0,0 km/h (0 Bft)
20.07.2023 11:00 17,6 C 19,3 C 17,2 C 20,3 C 20,3 C 2,7 C 86 % 90 % 1015,7 hPa 0,0 l/m 0,0 km/h (0 Bft) N 0,25 h 15,3 C 20,3 C 0,0 km/h (0 Bft)
20.07.2023 12:00 19,2 C 19,2 C 18,3 C 24,6 C 24,6 C 5,3 C 81 % 84 % 1015,4 hPa 0,0 l/m 0,1 km/h (0 Bft) N 0,83 h 15,8 C 24,6 C 0,4 km/h (0 Bft)
20.07.2023 13:00 19,1 C 19,2 C 17,6 C 22,2 C 22,1 C 3,1 C 74 % 81 % 1015,7 hPa 4,8 l/m 0,5 km/h (0 Bft) O-SO 0,50 h 14,4 C 22,1 C 1,9 km/h (1 Bft)
20.07.2023 14:00 16,4 C 19,5 C 16,0 C 18,0 C 17,9 C 1,7 C 84 % 90 % 1016,1 hPa 0,7 l/m 0,0 km/h (0 Bft) N 0,22 h 13,7 C 17,9 C 0,0 km/h (0 Bft)
20.07.2023 15:00 17,0 C 19,3 C 17,3 C 24,0 C 24,0 C 7,0 C 88 % 90 % 1016,0 hPa 0,0 l/m 0,1 km/h (0 Bft) N 1,00 h 14,9 C 24,0 C 0,0 km/h (0 Bft)
20.07.2023 16:00 17,6 C 19,0 C 17,7 C 24,7 C 24,7 C 7,1 C 86 % 90 % 1016,0 hPa 0,0 l/m 0,0 km/h (0 Bft) N 1,00 h 15,2 C 24,7 C 0,0 km/h (0 Bft)
20.07.2023 17:00 18,3 C 18,9 C 17,5 C 23,2 C 23,2 C 4,9 C 80 % 86 % 1015,7 hPa 0,0 l/m 0,0 km/h (0 Bft) N 1,00 h 14,7 C 23,2 C 0,2 km/h (0 Bft)
20.07.2023 18:00 19,1 C 18,9 C 19,0 C 22,1 C 22,1 C 2,9 C 73 % 80 % 1015,7 hPa 0,0 l/m 0,0 km/h (0 Bft) N 0,27 h 14,1 C 22,1 C 0,0 km/h (0 Bft)
20.07.2023 19:00 19,4 C 18,9 C 18,6 C 20,3 C 20,3 C 0,9 C 69 % 71 % 1015,6 hPa 0,0 l/m 0,0 km/h (0 Bft) N 0,00 h 13,6 C 20,3 C 0,0 km/h (0 Bft)
20.07.2023 20:00 18,6 C 19,0 C 17,4 C 18,4 C 18,0 C 0,0 C 72 % 74 % 1015,1 hPa 0,0 l/m 0,0 km/h (0 Bft) N 0,00 h 13,4 C 18,0 C 0,0 km/h (0 Bft)
20.07.2023 21:00 16,8 C 19,1 C 15,8 C 16,3 C 15,5 C 0,0 C 78 % 78 % 1015,4 hPa 0,0 l/m 0,0 km/h (0 Bft) N 0,00 h 12,8 C 15,5 C 0,0 km/h (0 Bft)
20.07.2023 22:00 15,4 C 19,3 C 14,3 C 14,7 C 13,5 C 0,0 C 81 % 81 % 1015,7 hPa 0,0 l/m 0,0 km/h (0 Bft) N 0,00 h 12,2 C 13,5 C 0,0 km/h (0 Bft)
20.07.2023 23:00 14,3 C 19,3 C 13,7 C 13,8 C 12,8 C 0,0 C 84 % 83 % 1016,2 hPa 0,0 l/m 0,0 km/h (0 Bft) N 0,00 h 11,6 C 12,8 C 0,0 km/h (0 Bft)
21.07.2023 00:00 13,4 C 19,1 C 12,8 C 13,0 C 12,1 C 0,0 C 85 % 83 % 1015,9 hPa 0,0 l/m 0,0 km/h (0 Bft) N 0,00 h 11,0 C 12,1 C 0,0 km/h (0 Bft)
21.07.2023 01:00 12,8 C 19,0 C 12,1 C 12,3 C 11,4 C 0,0 C 86 % 90 % 1015,7 hPa 0,0 l/m 0,0 km/h (0 Bft) N 0,00 h 10,5 C 11,4 C 0,0 km/h (0 Bft)
21.07.2023 02:00 12,2 C 18,9 C 11,5 C 11,7 C 10,8 C 0,0 C 86 % 90 % 1015,6 hPa 0,0 l/m 0,0 km/h (0 Bft) N 0,00 h 10,0 C 10,8 C 0,0 km/h (0 Bft)
21.07.2023 03:00 11,4 C 18,7 C 10,8 C 11,0 C 10,1 C 0,0 C 87 % 90 % 1015,4 hPa 0,0 l/m 0,0 km/h (0 Bft) N 0,00 h 9,3 C 10,1 C 0,0 km/h (0 Bft)
21.07.2023 04:00 10,9 C 18,5 C 10,3 C 10,5 C 9,8 C 0,0 C 87 % 90 % 1015,1 hPa 0,0 l/m 0,0 km/h (0 Bft) N 0,00 h 8,8 C 9,8 C 0,0 km/h (0 Bft)
21.07.2023 05:00 10,2 C 18,3 C 9,7 C 9,8 C 8,9 C 0,0 C 88 % 90 % 1015,1 hPa 0,0 l/m 0,0 km/h (0 Bft) N 0,00 h 8,3 C 8,9 C 0,0 km/h (0 Bft)
21.07.2023 06:00 10,0 C 18,2 C 10,1 C 10,3 C 10,1 C 0,4 C 88 % 90 % 1015,0 hPa 0,0 l/m 0,0 km/h (0 Bft) N 0,00 h 8,1 C 10,1 C 0,0 km/h (0 Bft)
21.07.2023 07:00 10,9 C 18,1 C 12,2 C 12,4 C 12,4 C 1,5 C 88 % 90 % 1013,9 hPa 0,0 l/m 0,0 km/h (0 Bft) N 0,00 h 9,0 C 12,4 C 0,0 km/h (0 Bft)
21.07.2023 08:00 11,8 C 18,1 C 13,1 C 13,1 C 13,1 C 1,3 C 88 % 90 % 1013,5 hPa 0,0 l/m 0,0 km/h (0 Bft) N 0,00 h 9,9 C 13,1 C 0,0 km/h (0 Bft)
21.07.2023 09:00 12,9 C 18,0 C 14,7 C 15,4 C 15,4 C 2,5 C 88 % 85 % 1013,4 hPa 0,0 l/m 0,0 km/h (0 Bft) N 0,00 h 11,0 C 15,4 C 0,0 km/h (0 Bft)
21.07.2023 10:00 14,7 C 17,8 C 16,7 C 19,4 C 19,4 C 4,7 C 88 % 81 % 1013,6 hPa 0,0 l/m 0,0 km/h (0 Bft) N 0,73 h 12,7 C 19,4 C 0,2 km/h (0 Bft)
21.07.2023 11:00 17,9 C 17,6 C 18,2 C 21,8 C 21,8 C 3,9 C 79 % 69 % 1013,6 hPa 0,0 l/m 0,0 km/h (0 Bft) N 0,58 h 14,3 C 21,8 C 0,4 km/h (0 Bft)
21.07.2023 12:00 20,0 C 17,6 C 19,5 C 25,6 C 25,6 C 5,6 C 69 % 62 % 1013,8 hPa 0,0 l/m 0,1 km/h (0 Bft) N 1,00 h 14,2 C 25,6 C 0,7 km/h (0 Bft)
21.07.2023 13:00 19,5 C 17,7 C 18,7 C 21,2 C 21,2 C 1,7 C 66 % 61 % 1013,5 hPa 0,0 l/m 0,0 km/h (0 Bft) N 0,17 h 12,9 C 21,2 C 0,0 km/h (0 Bft)
21.07.2023 14:00 19,0 C 17,8 C 18,3 C 20,2 C 20,2 C 1,2 C 67 % 64 % 1013,3 hPa 0,0 l/m 0,0 km/h (0 Bft) N 0,00 h 12,8 C 20,2 C 0,0 km/h (0 Bft)
21.07.2023 15:00 19,2 C 17,9 C 18,4 C 20,7 C 20,7 C 1,4 C 67 % 65 % 1013,1 hPa 0,0 l/m 0,0 km/h (0 Bft) N 0,00 h 12,9 C 20,7 C 0,0 km/h (0 Bft)
21.07.2023 16:00 20,1 C 17,9 C 19,8 C 23,6 C 23,6 C 3,5 C 64 % 60 % 1012,7 hPa 0,0 l/m 0,0 km/h (0 Bft) N 0,47 h 13,1 C 23,6 C 0,0 km/h (0 Bft)
21.07.2023 17:00 20,9 C 18,0 C 20,9 C 23,2 C 23,2 C 2,3 C 61 % 55 % 1012,2 hPa 0,0 l/m 0,0 km/h (0 Bft) N 0,17 h 13,0 C 23,2 C 0,0 km/h (0 Bft)
21.07.2023 18:00 21,3 C 18,1 C 20,2 C 22,2 C 22,2 C 1,0 C 59 % 58 % 1012,2 hPa 0,0 l/m 0,0 km/h (0 Bft) N 0,00 h 13,0 C 22,2 C 0,0 km/h (0 Bft)
21.07.2023 19:00 20,5 C 18,2 C 18,8 C 20,3 C 19,5 C 0,1 C 62 % 63 % 1012,3 hPa 0,0 l/m 0,0 km/h (0 Bft) N 0,00 h 13,0 C 19,5 C 0,5 km/h (0 Bft)
21.07.2023 20:00 16,8 C 18,6 C 15,3 C 16,1 C 14,7 C 0,0 C 77 % 80 % 1013,5 hPa 1,4 l/m 0,0 km/h (0 Bft) N 0,00 h 12,6 C 14,7 C 0,0 km/h (0 Bft)
21.07.2023 21:00 15,4 C 18,7 C 14,7 C 15,0 C 14,3 C 0,0 C 83 % 90 % 1013,7 hPa 0,0 l/m 0,0 km/h (0 Bft) N 0,00 h 12,5 C 14,3 C 0,0 km/h (0 Bft)
21.07.2023 22:00 15,1 C 18,7 C 14,6 C 14,8 C 14,3 C 0,0 C 86 % 90 % 1014,1 hPa 0,0 l/m 0,0 km/h (0 Bft) N 0,00 h 12,7 C 14,3 C 0,0 km/h (0 Bft)
21.07.2023 23:00 14,8 C 18,6 C 14,1 C 14,4 C 13,7 C 0,0 C 87 % 90 % 1013,7 hPa 0,0 l/m 0,0 km/h (0 Bft) N 0,00 h 12,5 C 13,7 C 0,0 km/h (0 Bft)
22.07.2023 00:00 14,1 C 18,6 C 13,6 C 13,8 C 13,2 C 0,0 C 87 % 90 % 1013,8 hPa 0,0 l/m 0,3 km/h (0 Bft) N 0,00 h 12,0 C 13,2 C 1,0 km/h (0 Bft)
22.07.2023 01:00 13,8 C 18,6 C 13,4 C 13,5 C 13,1 C 0,0 C 88 % 90 % 1014,3 hPa 0,0 l/m 0,6 km/h (0 Bft) SO 0,00 h 11,8 C 13,1 C 1,0 km/h (0 Bft)
22.07.2023 02:00 13,5 C 18,4 C 13,3 C 13,3 C 12,9 C 0,0 C 88 % 90 % 1014,7 hPa 0,0 l/m 0,2 km/h (0 Bft) N 0,00 h 11,5 C 12,9 C 0,0 km/h (0 Bft)
22.07.2023 03:00 13,3 C 18,3 C 13,2 C 13,1 C 12,8 C 0,0 C 88 % 90 % 1015,0 hPa 0,0 l/m 0,0 km/h (0 Bft) N 0,00 h 11,4 C 12,8 C 0,3 km/h (0 Bft)
22.07.2023 04:00 13,0 C 18,3 C 12,6 C 12,7 C 12,2 C 0,0 C 88 % 90 % 1015,2 hPa 0,0 l/m 0,0 km/h (0 Bft) N 0,00 h 11,0 C 12,2 C 0,0 km/h (0 Bft)
22.07.2023 05:00 12,6 C 18,2 C 12,5 C 12,4 C 12,1 C 0,0 C 88 % 90 % 1015,1 hPa 0,0 l/m 0,0 km/h (0 Bft) N 0,00 h 10,6 C 12,1 C 0,0 km/h (0 Bft)
22.07.2023 06:00 12,4 C 18,1 C 12,5 C 12,5 C 12,4 C 0,2 C 88 % 90 % 1015,1 hPa 0,0 l/m 0,0 km/h (0 Bft) N 0,00 h 10,4 C 12,4 C 0,0 km/h (0 Bft)
22.07.2023 07:00 12,7 C 17,9 C 13,3 C 16,9 C 16,9 C 4,2 C 88 % 90 % 1015,5 hPa 0,0 l/m 0,0 km/h (0 Bft) N 0,50 h 10,8 C 16,9 C 0,0 km/h (0 Bft)
22.07.2023 08:00 15,5 C 17,7 C 14,0 C 25,5 C 25,5 C 10,0 C 86 % 90 % 1015,9 hPa 0,0 l/m 0,0 km/h (0 Bft) N 1,00 h 13,2 C 25,5 C 0,6 km/h (0 Bft)
22.07.2023 09:00 17,0 C 17,5 C 14,9 C 24,4 C 24,4 C 7,4 C 77 % 83 % 1016,6 hPa 0,0 l/m 0,0 km/h (0 Bft) N 1,00 h 12,9 C 24,4 C 0,0 km/h (0 Bft)
22.07.2023 10:00 17,9 C 17,4 C 16,1 C 23,3 C 23,3 C 5,4 C 69 % 72 % 1017,0 hPa 0,0 l/m 0,0 km/h (0 Bft) N 0,73 h 12,1 C 23,3 C 0,0 km/h (0 Bft)
22.07.2023 11:00 19,1 C 17,4 C 17,9 C 25,1 C 25,1 C 6,0 C 62 % 62 % 1017,2 hPa 0,0 l/m 0,1 km/h (0 Bft) N 1,00 h 11,6 C 25,1 C 0,7 km/h (0 Bft)
22.07.2023 12:00 20,4 C 17,4 C 19,5 C 24,7 C 24,7 C 4,4 C 56 % 54 % 1017,2 hPa 0,0 l/m 0,1 km/h (0 Bft) N 1,00 h 11,4 C 24,7 C 0,9 km/h (0 Bft)
22.07.2023 13:00 20,9 C 17,4 C 20,0 C 24,1 C 24,1 C 3,1 C 52 % 50 % 1017,2 hPa 0,0 l/m 0,0 km/h (0 Bft) N 0,42 h 10,7 C 24,1 C 0,4 km/h (0 Bft)
22.07.2023 14:00 21,5 C 17,5 C 21,6 C 25,8 C 25,8 C 4,3 C 51 % 49 % 1016,8 hPa 0,0 l/m 0,1 km/h (0 Bft) N 0,73 h 10,8 C 25,8 C 0,0 km/h (0 Bft)
22.07.2023 15:00 22,6 C 17,6 C 22,7 C 27,7 C 27,7 C 5,2 C 48 % 46 % 1016,5 hPa 0,0 l/m 0,1 km/h (0 Bft) N 1,00 h 10,9 C 27,7 C 0,0 km/h (0 Bft)
22.07.2023 16:00 22,7 C 17,6 C 22,1 C 25,9 C 25,9 C 3,2 C 47 % 46 % 1016,0 hPa 0,0 l/m 0,0 km/h (0 Bft) N 0,17 h 10,7 C 25,9 C 0,0 km/h (0 Bft)
22.07.2023 17:00 23,4 C 17,7 C 23,0 C 26,2 C 26,2 C 2,7 C 45 % 45 % 1015,8 hPa 0,0 l/m 0,1 km/h (0 Bft) N 0,08 h 10,8 C 26,2 C 0,2 km/h (0 Bft)
22.07.2023 18:00 23,6 C 17,9 C 22,6 C 25,3 C 25,3 C 1,7 C 44 % 45 % 1015,5 hPa 0,0 l/m 0,0 km/h (0 Bft) N 0,00 h 10,8 C 25,3 C 0,0 km/h (0 Bft)
22.07.2023 19:00 22,9 C 18,0 C 21,4 C 23,9 C 23,9 C 1,0 C 48 % 48 % 1015,2 hPa 0,0 l/m 0,0 km/h (0 Bft) N 0,00 h 11,2 C 23,9 C 0,0 km/h (0 Bft)
22.07.2023 20:00 21,5 C 18,1 C 19,6 C 23,5 C 23,5 C 2,0 C 53 % 53 % 1014,9 hPa 0,0 l/m 0,0 km/h (0 Bft) N 0,73 h 11,4 C 23,5 C 0,0 km/h (0 Bft)
22.07.2023 21:00 18,6 C 18,3 C 16,8 C 19,8 C 19,0 C 1,7 C 61 % 61 % 1015,0 hPa 0,0 l/m 0,0 km/h (0 Bft) N 0,00 h 11,0 C 19,0 C 0,0 km/h (0 Bft)
22.07.2023 22:00 16,3 C 18,3 C 15,0 C 15,7 C 14,4 C 0,0 C 71 % 70 % 1015,1 hPa 0,0 l/m 0,0 km/h (0 Bft) N 0,00 h 11,0 C 14,4 C 0,0 km/h (0 Bft)
22.07.2023 23:00 14,8 C 18,4 C 13,9 C 14,3 C 13,1 C 0,0 C 76 % 74 % 1015,0 hPa 0,0 l/m 0,0 km/h (0 Bft) N 0,00 h 10,7 C 13,1 C 0,0 km/h (0 Bft)
23.07.2023 00:00 13,6 C 18,4 C 13,0 C 13,2 C 12,3 C 0,0 C 80 % 77 % 1015,0 hPa 0,0 l/m 0,0 km/h (0 Bft) N 0,00 h 10,3 C 12,3 C 0,0 km/h (0 Bft)
23.07.2023 01:00 13,0 C 18,4 C 12,7 C 12,7 C 12,0 C 0,0 C 83 % 78 % 1014,8 hPa 0,0 l/m 0,0 km/h (0 Bft) N 0,00 h 10,2 C 12,0 C 0,0 km/h (0 Bft)
23.07.2023 02:00 12,7 C 18,3 C 12,4 C 12,4 C 11,8 C 0,0 C 84 % 78 % 1014,2 hPa 0,0 l/m 0,0 km/h (0 Bft) N 0,00 h 10,1 C 11,8 C 0,0 km/h (0 Bft)
23.07.2023 03:00 12,9 C 18,3 C 13,0 C 12,8 C 12,5 C 0,0 C 86 % 79 % 1014,0 hPa 0,0 l/m 0,0 km/h (0 Bft) N 0,00 h 10,5 C 12,5 C 0,0 km/h (0 Bft)
23.07.2023 04:00 14,9 C 17,8 C 15,0 C 15,8 C 15,8 C 0,9 C 82 % 73 % 1013,7 hPa 0,0 l/m 0,0 km/h (0 Bft) N 0,00 h 11,8 C 15,8 C 0,8 km/h (0 Bft)
23.07.2023 05:00 16,7 C 17,7 C 15,9 C 17,0 C 17,0 C 0,3 C 73 % 68 % 1013,5 hPa 0,0 l/m 0,0 km/h (0 Bft) N 0,00 h 11,8 C 17,0 C 0,0 km/h (0 Bft)
23.07.2023 06:00 17,2 C 17,7 C 16,8 C 17,9 C 17,8 C 0,7 C 70 % 65 % 1013,8 hPa 0,0 l/m 0,0 km/h (0 Bft) N 0,00 h 11,7 C 17,8 C 0,0 km/h (0 Bft)
23.07.2023 07:00 18,5 C 17,8 C 17,8 C 19,6 C 19,6 C 1,0 C 67 % 64 % 1013,7 hPa 0,0 l/m 0,0 km/h (0 Bft) N 0,00 h 12,3 C 19,6 C 0,2 km/h (0 Bft)
23.07.2023 08:00 20,0 C 17,8 C 18,7 C 23,2 C 23,2 C 3,3 C 64 % 64 % 1013,3 hPa 0,0 l/m 0,0 km/h (0 Bft) N 0,48 h 12,9 C 23,2 C 0,0 km/h (0 Bft)
23.07.2023 09:00 22,9 C 17,8 C 20,9 C 28,4 C 28,4 C 5,5 C 55 % 55 % 1013,1 hPa 0,0 l/m 0,8 km/h (0 Bft) SO 0,75 h 13,2 C 28,4 C 4,0 km/h (1 Bft)
23.07.2023 10:00 24,2 C 17,9 C 22,8 C 27,2 C 27,2 C 3,0 C 47 % 46 % 1012,7 hPa 0,0 l/m 1,0 km/h (0 Bft) S-SO 0,25 h 12,2 C 27,2 C 4,8 km/h (1 Bft)
23.07.2023 11:00 25,2 C 18,0 C 24,1 C 28,7 C 28,7 C 3,5 C 46 % 44 % 1012,6 hPa 0,0 l/m 1,4 km/h (1 Bft) O-SO 0,50 h 12,7 C 28,7 C 2,1 km/h (1 Bft)
23.07.2023 12:00 26,5 C 18,2 C 25,4 C 30,1 C 30,1 C 3,6 C 43 % 42 % 1012,3 hPa 0,0 l/m 0,8 km/h (0 Bft) S 0,70 h 12,7 C 30,1 C 2,5 km/h (1 Bft)
23.07.2023 13:00 28,1 C 18,3 C 26,8 C 31,7 C 31,7 C 3,7 C 38 % 38 % 1011,9 hPa 0,0 l/m 1,6 km/h (1 Bft) N-NO 0,58 h 12,2 C 31,7 C 1,7 km/h (1 Bft)
23.07.2023 14:00 27,6 C 18,6 C 26,7 C 30,6 C 30,6 C 3,0 C 37 % 37 % 1012,1 hPa 0,0 l/m 1,1 km/h (0 Bft) S 0,52 h 11,6 C 30,6 C 1,8 km/h (1 Bft)
23.07.2023 15:00 27,3 C 18,8 C 26,6 C 29,5 C 29,5 C 2,2 C 37 % 36 % 1011,7 hPa 0,0 l/m 0,7 km/h (0 Bft) W-SW 0,00 h 11,4 C 29,5 C 1,5 km/h (1 Bft)
23.07.2023 16:00 26,4 C 19,0 C 25,4 C 27,4 C 27,3 C 0,9 C 36 % 35 % 1012,0 hPa 0,0 l/m 1,0 km/h (0 Bft) S 0,00 h 10,3 C 27,3 C 2,2 km/h (1 Bft)
23.07.2023 17:00 24,7 C 19,1 C 23,7 C 25,0 C 25,0 C 0,4 C 41 % 39 % 1012,3 hPa 0,0 l/m 0,1 km/h (0 Bft) N 0,00 h 10,5 C 25,0 C 0,4 km/h (0 Bft)
23.07.2023 18:00 24,3 C 19,2 C 23,3 C 24,7 C 24,7 C 0,4 C 45 % 44 % 1012,0 hPa 0,0 l/m 0,0 km/h (0 Bft) N 0,00 h 11,7 C 24,7 C 0,0 km/h (0 Bft)
23.07.2023 19:00 24,2 C 19,3 C 23,1 C 24,2 C 24,2 C 0,1 C 47 % 45 % 1011,6 hPa 0,0 l/m 0,0 km/h (0 Bft) N 0,00 h 12,0 C 24,2 C 0,0 km/h (0 Bft)
23.07.2023 20:00 23,3 C 19,4 C 21,9 C 23,1 C 22,7 C 0,0 C 52 % 51 % 1011,2 hPa 0,0 l/m 0,0 km/h (0 Bft) N 0,00 h 12,8 C 22,7 C 0,0 km/h (0 Bft)
23.07.2023 21:00 21,5 C 19,5 C 20,3 C 21,3 C 20,7 C 0,0 C 60 % 59 % 1011,1 hPa 0,0 l/m 0,0 km/h (0 Bft) N 0,00 h 13,5 C 20,7 C 0,0 km/h (0 Bft)
23.07.2023 22:00 20,4 C 19,5 C 19,6 C 20,2 C 19,9 C 0,0 C 64 % 61 % 1011,0 hPa 0,0 l/m 0,0 km/h (0 Bft) N 0,00 h 13,3 C 19,9 C 0,0 km/h (0 Bft)
23.07.2023 23:00 20,2 C 19,5 C 19,7 C 20,5 C 20,5 C 0,3 C 65 % 62 % 1010,8 hPa 0,0 l/m 0,0 km/h (0 Bft) N 0,00 h 13,4 C 20,5 C 0,0 km/h (0 Bft)
Min-Datum _ 21.07.23 22.07.23 21.07.23 21.07.23 21.07.23 17.07.23 17.07.23 17.07.23 23.07.23 - 17.07.23 - - 19.07.23 21.07.23 17.07.23
_ Min-Zeit 06:00 11:55 05:35 06:00 05:35 00:00 14:30 14:35 23:20 - 00:00 - - 05:20 05:35 00:00
Minimum _ 9,9 C 17,3 C 9,5 C 9,5 C 8,7 C 0,0 C 31 % 31 % 1010,7 hPa - 0,0 km/h (0 Bft) - - 7,3 C 8,7 C 0,0 km/h (0 Bft)
Max-Datum _ 19.07.23 17.07.23 19.07.23 17.07.23 17.07.23 19.07.23 21.07.23 19.07.23 18.07.23 20.07.23 17.07.23 - 21.07.23 20.07.23 17.07.23 17.07.23
_ Max-Zeit 13:25 00:00 14:55 15:45 15:45 08:11 07:11 23:46 09:00 13:45 23:25 - 10:32 12:27 15:45 23:25
Maximum _ 29,8 C 21,2 C 30,3 C 34,4 C 34,4 C 13,3 C 89 % 90 % 1024,9 hPa 4,8 l/m 5,1 km/h
SO (1 Bft)
- 0,35 h 16,5 C 34,4 C 28,3 km/h
SO (4 Bft)
Durchschnitt _ 18,8 C 19,2 C 18,2 C 20,9 C 20,6 C 2,2 C 66 % 64 % 1016,4 hPa #11,7 l/m 0,1 km/h (0 Bft) S #47:08 h 11,6 C 20,6 C 0,3 km/h (0 Bft)
2023 www.wetterstation-wechselburg.de